createdAt,value
2023-05-07T00:00:09.620Z,12.70
2023-05-07T00:02:37.279Z,12.70
2023-05-07T00:05:05.261Z,12.70
2023-05-07T00:07:32.623Z,12.70
2023-05-07T00:09:59.837Z,12.70
2023-05-07T00:12:27.010Z,12.70
2023-05-07T00:14:54.156Z,12.60
2023-05-07T00:17:21.351Z,12.60
2023-05-07T00:19:48.880Z,12.60
2023-05-07T00:22:17.001Z,12.60
2023-05-07T00:24:44.471Z,12.60
2023-05-07T00:27:11.699Z,12.70
2023-05-07T00:29:40.862Z,12.70
2023-05-07T00:32:08.126Z,12.70
2023-05-07T00:34:35.419Z,12.70
2023-05-07T00:37:04.297Z,12.80
2023-05-07T00:39:33.174Z,12.80
2023-05-07T00:42:01.714Z,12.80
2023-05-07T00:44:29.753Z,12.80
2023-05-07T00:46:58.790Z,12.80
2023-05-07T00:49:45.763Z,12.80
2023-05-07T00:52:16.362Z,12.70
2023-05-07T00:54:43.818Z,12.60
2023-05-07T00:57:15.140Z,12.50
2023-05-07T00:59:43.191Z,12.50
2023-05-07T01:02:10.333Z,12.40
2023-05-07T01:04:38.047Z,12.40
2023-05-07T01:07:07.334Z,12.40
2023-05-07T01:09:36.634Z,12.30
2023-05-07T01:12:05.720Z,12.20
2023-05-07T01:14:34.571Z,12.20
2023-05-07T01:17:02.516Z,12.10
2023-05-07T01:19:31.422Z,12.00
2023-05-07T01:22:04.544Z,11.90
2023-05-07T01:24:33.087Z,11.90
2023-05-07T01:27:00.287Z,11.90
2023-05-07T01:29:27.495Z,11.90
2023-05-07T01:31:54.863Z,11.80
2023-05-07T01:34:23.534Z,11.80
2023-05-07T01:36:50.965Z,11.80
2023-05-07T01:39:19.310Z,11.70
2023-05-07T01:41:47.641Z,11.70
2023-05-07T01:44:15.895Z,11.70
2023-05-07T01:46:43.167Z,11.70
2023-05-07T01:49:10.724Z,11.80
2023-05-07T01:51:38.093Z,11.80
2023-05-07T01:54:05.240Z,11.80
2023-05-07T01:56:32.610Z,11.80
2023-05-07T01:58:59.820Z,11.80
2023-05-07T02:01:27.510Z,11.80
2023-05-07T02:03:55.162Z,11.80
2023-05-07T02:06:22.679Z,11.80
2023-05-07T02:08:49.810Z,11.80
2023-05-07T02:11:16.916Z,11.80
2023-05-07T02:13:44.084Z,11.90
2023-05-07T02:16:12.223Z,11.90
2023-05-07T02:18:39.390Z,12.00
2023-05-07T02:21:06.534Z,12.00
2023-05-07T02:23:33.693Z,12.00
2023-05-07T02:26:00.942Z,12.00
2023-05-07T02:28:28.094Z,12.00
2023-05-07T02:30:55.947Z,12.10
2023-05-07T02:33:23.114Z,12.10
2023-05-07T02:35:50.216Z,12.10
2023-05-07T02:38:17.371Z,12.10
2023-05-07T02:40:44.530Z,12.10
2023-05-07T02:43:11.710Z,12.20
2023-05-07T02:45:39.045Z,12.20
2023-05-07T02:48:07.659Z,12.30
2023-05-07T02:50:34.817Z,12.30
2023-05-07T02:53:01.980Z,12.30
2023-05-07T02:55:29.050Z,12.20
2023-05-07T02:57:56.186Z,12.20
2023-05-07T03:00:23.780Z,12.20
2023-05-07T03:02:50.985Z,12.20
2023-05-07T03:05:18.220Z,12.10
2023-05-07T03:07:47.294Z,12.00
2023-05-07T03:10:14.574Z,12.00
2023-05-07T03:12:41.925Z,11.90
2023-05-07T03:15:09.812Z,11.90
2023-05-07T03:17:37.089Z,11.90
2023-05-07T03:20:04.963Z,11.90
2023-05-07T03:22:32.134Z,11.90
2023-05-07T03:24:59.833Z,11.90
2023-05-07T03:27:26.996Z,12.00
2023-05-07T03:29:54.142Z,12.00
2023-05-07T03:32:21.240Z,12.00
2023-05-07T03:34:48.393Z,12.00
2023-05-07T03:37:15.649Z,12.00
2023-05-07T03:39:42.748Z,12.00
2023-05-07T03:42:09.929Z,12.00
2023-05-07T03:44:40.194Z,11.90
2023-05-07T03:47:07.332Z,12.00
2023-05-07T03:49:34.482Z,11.90
2023-05-07T03:52:01.646Z,11.90
2023-05-07T03:54:28.719Z,11.90
2023-05-07T03:56:55.948Z,12.00
2023-05-07T03:59:23.734Z,12.00
2023-05-07T04:01:51.439Z,12.00
2023-05-07T04:04:18.713Z,12.10
2023-05-07T04:06:46.123Z,12.00
2023-05-07T04:09:13.232Z,12.10
2023-05-07T04:11:41.428Z,12.10
2023-05-07T04:14:08.581Z,12.20
2023-05-07T04:16:36.579Z,12.20
2023-05-07T04:19:03.714Z,12.30
2023-05-07T04:21:31.361Z,12.30
2023-05-07T04:23:58.481Z,12.40
2023-05-07T04:26:25.704Z,12.50
2023-05-07T04:28:52.879Z,12.60
2023-05-07T04:31:20.059Z,12.70
2023-05-07T04:33:47.244Z,12.80
2023-05-07T04:36:14.383Z,12.90
2023-05-07T04:38:41.912Z,13.00
2023-05-07T04:41:10.888Z,13.00
2023-05-07T04:43:38.025Z,13.00
2023-05-07T04:46:05.251Z,13.10
2023-05-07T04:48:32.441Z,13.10
2023-05-07T04:50:59.538Z,13.00
2023-05-07T04:53:26.834Z,13.10
2023-05-07T04:55:58.271Z,13.20
2023-05-07T04:58:25.615Z,13.40
2023-05-07T05:00:53.069Z,13.30
2023-05-07T05:03:20.315Z,13.40
2023-05-07T05:05:47.409Z,13.50
2023-05-07T05:08:14.568Z,13.70
2023-05-07T05:10:42.844Z,13.70
2023-05-07T05:13:10.423Z,13.90
2023-05-07T05:15:37.558Z,14.10
2023-05-07T05:18:04.745Z,14.20
2023-05-07T05:20:31.966Z,14.30
2023-05-07T05:22:59.097Z,14.60
2023-05-07T05:25:26.300Z,15.00
2023-05-07T05:27:53.540Z,15.20
2023-05-07T05:30:21.373Z,15.40
2023-05-07T05:32:50.628Z,15.70
2023-05-07T05:35:17.914Z,16.10
2023-05-07T05:37:45.031Z,15.90
2023-05-07T05:40:12.880Z,16.40
2023-05-07T05:42:40.263Z,16.70
2023-05-07T05:45:08.042Z,17.20
2023-05-07T05:47:35.292Z,17.80
2023-05-07T05:50:02.596Z,18.60
2023-05-07T05:52:29.966Z,18.60
2023-05-07T05:54:57.274Z,18.50
2023-05-07T05:57:25.615Z,18.50
2023-05-07T05:59:53.826Z,18.60
2023-05-07T06:02:21.010Z,18.60
2023-05-07T06:04:48.196Z,18.70
2023-05-07T06:07:15.391Z,18.90
2023-05-07T06:09:42.533Z,18.60
2023-05-07T06:12:09.603Z,18.10
2023-05-07T06:14:36.758Z,17.10
2023-05-07T06:17:04.120Z,16.80
2023-05-07T06:19:32.447Z,16.50
2023-05-07T06:21:59.580Z,16.30
2023-05-07T06:24:26.953Z,15.90
2023-05-07T06:26:54.195Z,15.90
2023-05-07T06:29:21.319Z,15.70
2023-05-07T06:31:48.606Z,15.70
2023-05-07T06:34:15.742Z,15.90
2023-05-07T06:36:43.114Z,16.20
2023-05-07T06:39:10.270Z,16.10
2023-05-07T06:41:37.882Z,16.10
2023-05-07T06:44:06.090Z,16.10
2023-05-07T06:46:33.386Z,16.20
2023-05-07T06:49:00.550Z,16.20
2023-05-07T06:51:28.128Z,16.50
2023-05-07T06:53:55.287Z,16.80
2023-05-07T06:56:22.451Z,16.60
2023-05-07T06:58:49.599Z,16.90
2023-05-07T07:01:16.734Z,17.10
2023-05-07T07:03:43.912Z,17.20
2023-05-07T07:06:11.044Z,17.10
2023-05-07T07:08:39.888Z,17.10
2023-05-07T07:11:07.594Z,16.80
2023-05-07T07:13:34.717Z,16.80
2023-05-07T07:16:02.184Z,17.10
2023-05-07T07:18:29.322Z,17.00
2023-05-07T07:20:56.468Z,16.90
2023-05-07T07:23:23.631Z,17.20
2023-05-07T07:25:50.763Z,17.20
2023-05-07T07:28:18.294Z,17.20
2023-05-07T07:30:45.630Z,17.40
2023-05-07T07:33:12.835Z,17.40
2023-05-07T07:35:40.128Z,17.50
2023-05-07T07:38:07.228Z,17.50
2023-05-07T07:40:36.325Z,17.60
2023-05-07T07:43:03.560Z,17.30
2023-05-07T07:45:30.704Z,17.50
2023-05-07T07:47:57.901Z,17.40
2023-05-07T07:50:35.964Z,17.50
2023-05-07T07:53:11.532Z,17.60
2023-05-07T07:55:42.012Z,17.80
2023-05-07T07:58:09.108Z,18.00
2023-05-07T08:00:36.436Z,18.20
2023-05-07T08:03:04.836Z,18.40
2023-05-07T08:05:32.275Z,18.40
2023-05-07T08:07:59.772Z,18.20
2023-05-07T08:10:26.950Z,18.30
2023-05-07T08:12:54.208Z,18.50
2023-05-07T08:15:21.438Z,18.60
2023-05-07T08:17:48.626Z,18.80
2023-05-07T08:20:15.836Z,19.00
2023-05-07T08:22:43.037Z,18.70
2023-05-07T08:25:10.719Z,18.60
2023-05-07T08:27:37.892Z,18.70
2023-05-07T08:30:06.135Z,18.60
2023-05-07T08:32:33.315Z,18.80
2023-05-07T08:35:00.878Z,19.00
2023-05-07T08:37:28.033Z,19.20
2023-05-07T08:39:55.214Z,18.80
2023-05-07T08:42:26.563Z,19.20
2023-05-07T08:44:57.432Z,18.90
2023-05-07T08:47:31.258Z,18.90
2023-05-07T08:49:59.079Z,18.80
2023-05-07T08:52:27.561Z,18.90
2023-05-07T08:54:54.740Z,18.90
2023-05-07T08:57:22.860Z,19.20
2023-05-07T08:59:50.052Z,19.00
2023-05-07T09:02:17.889Z,18.90
2023-05-07T09:04:45.131Z,19.30
2023-05-07T09:07:12.292Z,19.20
2023-05-07T09:09:39.565Z,19.50
2023-05-07T09:12:06.997Z,19.40
2023-05-07T09:14:34.175Z,19.20
2023-05-07T09:17:01.494Z,19.30
2023-05-07T09:19:29.346Z,19.40
2023-05-07T09:22:05.051Z,19.50
2023-05-07T09:24:36.277Z,19.50
2023-05-07T09:27:04.011Z,19.50
2023-05-07T09:29:34.158Z,19.70
2023-05-07T09:32:01.317Z,19.80
2023-05-07T09:34:28.454Z,19.80
2023-05-07T09:36:55.824Z,20.00
2023-05-07T09:39:23.151Z,19.70
2023-05-07T09:41:52.064Z,19.60
2023-05-07T09:44:19.357Z,20.00
2023-05-07T09:46:48.629Z,19.90
2023-05-07T09:49:24.480Z,20.00
2023-05-07T09:51:53.658Z,20.10
2023-05-07T09:54:20.800Z,20.30
2023-05-07T09:56:50.428Z,20.40
2023-05-07T09:59:18.901Z,20.50
2023-05-07T10:01:46.853Z,20.50
2023-05-07T10:04:15.366Z,20.60
2023-05-07T10:06:44.816Z,20.80
2023-05-07T10:09:12.554Z,20.60
2023-05-07T10:11:40.905Z,20.70
2023-05-07T10:14:08.389Z,20.90
2023-05-07T10:16:37.916Z,20.90
2023-05-07T10:19:06.489Z,20.90
2023-05-07T10:21:38.463Z,20.80
2023-05-07T10:24:15.807Z,20.60
2023-05-07T10:26:49.530Z,20.40
2023-05-07T10:29:26.546Z,20.60
2023-05-07T10:31:59.315Z,20.70
2023-05-07T10:34:31.197Z,20.80
2023-05-07T10:36:58.762Z,21.10
2023-05-07T10:39:26.100Z,21.20
2023-05-07T10:41:53.775Z,21.40
2023-05-07T10:44:30.850Z,21.40
2023-05-07T10:47:14.120Z,21.60
2023-05-07T10:49:47.267Z,21.60
2023-05-07T10:52:25.916Z,21.50
2023-05-07T10:55:26.426Z,21.50
2023-05-07T10:57:53.851Z,21.50
2023-05-07T11:00:38.917Z,21.50
2023-05-07T11:03:08.249Z,21.50
2023-05-07T11:05:38.259Z,21.80
2023-05-07T11:08:06.705Z,21.80
2023-05-07T11:10:51.116Z,22.20
2023-05-07T11:13:19.713Z,22.10
2023-05-07T11:15:48.962Z,22.00
2023-05-07T11:18:19.160Z,22.20
2023-05-07T11:20:56.431Z,22.10
2023-05-07T11:23:35.929Z,21.80
2023-05-07T11:26:06.161Z,22.10
2023-05-07T11:28:38.999Z,21.90
2023-05-07T11:31:08.320Z,21.80
2023-05-07T11:33:36.663Z,22.10
2023-05-07T11:36:05.650Z,22.10
2023-05-07T11:38:37.255Z,22.30
2023-05-07T11:41:06.596Z,22.50
2023-05-07T11:43:34.586Z,22.60
2023-05-07T11:46:13.427Z,22.70
2023-05-07T11:48:40.718Z,22.70
2023-05-07T11:51:15.053Z,22.60
2023-05-07T11:53:43.182Z,22.40
2023-05-07T11:56:18.685Z,22.70
2023-05-07T11:58:47.216Z,22.70
2023-05-07T12:01:16.359Z,22.80
2023-05-07T12:03:47.051Z,22.70
2023-05-07T12:06:16.751Z,22.30
2023-05-07T12:08:47.812Z,22.20
2023-05-07T12:11:25.033Z,22.40
2023-05-07T12:13:52.679Z,22.70
2023-05-07T12:16:21.424Z,22.70
2023-05-07T12:18:48.858Z,23.00
2023-05-07T12:21:19.662Z,23.20
2023-05-07T12:23:47.180Z,23.50
2023-05-07T12:26:14.302Z,23.60
2023-05-07T12:28:41.600Z,23.40
2023-05-07T12:31:09.246Z,22.90
2023-05-07T12:33:37.507Z,22.60
2023-05-07T12:36:08.554Z,22.80
2023-05-07T12:38:42.346Z,23.00
2023-05-07T12:41:11.358Z,23.00
2023-05-07T12:43:39.226Z,22.70
2023-05-07T12:46:09.058Z,22.70
2023-05-07T12:48:44.495Z,22.90
2023-05-07T12:51:13.619Z,23.40
2023-05-07T12:53:44.570Z,23.20
2023-05-07T12:56:11.827Z,22.90
2023-05-07T12:58:39.006Z,22.70
2023-05-07T13:01:08.020Z,22.70
2023-05-07T13:03:37.178Z,23.20
2023-05-07T13:06:11.146Z,23.00
2023-05-07T13:08:45.780Z,22.70
2023-05-07T13:11:13.597Z,23.00
2023-05-07T13:13:42.029Z,23.00
2023-05-07T13:16:11.324Z,22.60
2023-05-07T13:18:40.369Z,22.80
2023-05-07T13:21:07.898Z,23.40
2023-05-07T13:23:35.727Z,23.30
2023-05-07T13:26:08.538Z,23.40
2023-05-07T13:28:43.164Z,23.50
2023-05-07T13:31:10.984Z,23.20
2023-05-07T13:33:38.168Z,23.60
2023-05-07T13:36:06.818Z,23.80
2023-05-07T13:38:33.914Z,23.60
2023-05-07T13:41:01.204Z,23.40
2023-05-07T13:43:28.329Z,23.30
2023-05-07T13:45:55.678Z,23.30
2023-05-07T13:48:22.899Z,23.40
2023-05-07T13:50:50.001Z,23.40
2023-05-07T13:53:21.379Z,23.00
2023-05-07T13:55:48.519Z,23.10
2023-05-07T13:58:15.701Z,23.00
2023-05-07T14:00:42.800Z,22.50
2023-05-07T14:03:09.980Z,22.70
2023-05-07T14:05:37.229Z,23.10
2023-05-07T14:08:05.799Z,23.30
2023-05-07T14:10:35.754Z,23.30
2023-05-07T14:13:03.100Z,23.20
2023-05-07T14:15:30.233Z,23.20
2023-05-07T14:17:58.811Z,23.10
2023-05-07T14:20:26.504Z,22.80
2023-05-07T14:22:53.687Z,22.70
2023-05-07T14:25:20.759Z,22.60
2023-05-07T14:27:47.868Z,22.80
2023-05-07T14:30:15.088Z,22.40
2023-05-07T14:32:42.294Z,22.50
2023-05-07T14:35:10.044Z,22.20
2023-05-07T14:37:37.452Z,22.10
2023-05-07T14:40:04.788Z,22.00
2023-05-07T14:42:31.867Z,22.10
2023-05-07T14:44:59.014Z,22.10
2023-05-07T14:47:26.432Z,22.10
2023-05-07T14:49:54.606Z,21.70
2023-05-07T14:52:21.894Z,21.70
2023-05-07T14:54:49.094Z,22.00
2023-05-07T14:57:17.743Z,22.10
2023-05-07T14:59:44.901Z,22.30
2023-05-07T15:02:13.305Z,21.90
2023-05-07T15:04:47.093Z,21.80
2023-05-07T15:07:18.661Z,21.30
2023-05-07T15:09:46.346Z,21.50
2023-05-07T15:12:14.565Z,21.50
2023-05-07T15:14:42.410Z,21.60
2023-05-07T15:17:09.649Z,21.50
2023-05-07T15:19:36.784Z,21.10
2023-05-07T15:22:04.029Z,20.90
2023-05-07T15:24:32.062Z,21.00
2023-05-07T15:27:03.983Z,20.90
2023-05-07T15:29:31.123Z,20.90
2023-05-07T15:31:59.002Z,20.80
2023-05-07T15:34:26.191Z,20.60
2023-05-07T15:36:53.305Z,20.50
2023-05-07T15:39:21.842Z,20.50
2023-05-07T15:41:50.370Z,20.60
2023-05-07T15:44:17.475Z,20.60
2023-05-07T15:46:44.575Z,20.40
2023-05-07T15:49:11.815Z,20.40
2023-05-07T15:51:39.095Z,20.30
2023-05-07T15:54:06.225Z,20.50
2023-05-07T15:56:33.996Z,20.50
2023-05-07T15:59:01.287Z,20.40
2023-05-07T16:01:29.654Z,20.50
2023-05-07T16:03:57.103Z,20.70
2023-05-07T16:06:24.274Z,20.40
2023-05-07T16:08:51.374Z,20.40
2023-05-07T16:11:18.462Z,20.30
2023-05-07T16:13:45.591Z,20.20
2023-05-07T16:16:13.381Z,19.90
2023-05-07T16:18:41.294Z,19.90
2023-05-07T16:21:08.791Z,20.00
2023-05-07T16:23:36.655Z,20.00
2023-05-07T16:26:05.198Z,20.10
2023-05-07T16:28:32.432Z,20.10
2023-05-07T16:30:59.590Z,20.00
2023-05-07T16:33:26.970Z,19.90
2023-05-07T16:35:54.698Z,19.80
2023-05-07T16:38:21.960Z,19.80
2023-05-07T16:40:49.115Z,19.80
2023-05-07T16:43:16.290Z,19.70
2023-05-07T16:45:43.448Z,19.60
2023-05-07T16:48:10.869Z,19.40
2023-05-07T16:50:38.600Z,19.40
2023-05-07T16:53:07.416Z,19.30
2023-05-07T16:55:39.581Z,19.20
2023-05-07T16:58:08.086Z,19.10
2023-05-07T17:00:49.221Z,19.10
2023-05-07T17:03:17.972Z,19.10
2023-05-07T17:05:45.396Z,19.00
2023-05-07T17:08:14.481Z,19.00
2023-05-07T17:10:42.344Z,18.90
2023-05-07T17:13:09.545Z,18.90
2023-05-07T17:15:36.878Z,18.70
2023-05-07T17:18:04.121Z,18.70
2023-05-07T17:20:31.394Z,18.70
2023-05-07T17:22:58.531Z,18.60
2023-05-07T17:25:25.743Z,18.60
2023-05-07T17:27:53.078Z,18.40
2023-05-07T17:30:20.988Z,18.40
2023-05-07T17:32:48.359Z,18.30
2023-05-07T17:35:15.782Z,18.20
2023-05-07T17:37:47.415Z,18.20
2023-05-07T17:40:15.490Z,18.10
2023-05-07T17:42:42.653Z,18.00
2023-05-07T17:45:10.235Z,17.90
2023-05-07T17:47:37.385Z,17.80
2023-05-07T17:50:11.073Z,17.80
2023-05-07T17:52:39.660Z,17.70
2023-05-07T17:55:07.972Z,17.70
2023-05-07T17:57:38.220Z,17.70
2023-05-07T18:00:07.976Z,17.60
2023-05-07T18:02:35.313Z,17.50
2023-05-07T18:05:04.072Z,17.50
2023-05-07T18:07:31.360Z,17.40
2023-05-07T18:09:58.648Z,17.30
2023-05-07T18:12:27.454Z,17.30
2023-05-07T18:14:55.162Z,17.20
2023-05-07T18:17:24.584Z,17.10
2023-05-07T18:19:54.673Z,17.10
2023-05-07T18:22:22.593Z,17.00
2023-05-07T18:24:51.661Z,17.00
2023-05-07T18:27:19.009Z,16.90
2023-05-07T18:29:46.151Z,16.90
2023-05-07T18:32:14.037Z,16.80
2023-05-07T18:34:41.732Z,16.70
2023-05-07T18:37:09.166Z,16.70
2023-05-07T18:39:37.183Z,16.70
2023-05-07T18:42:08.948Z,16.70
2023-05-07T18:44:39.530Z,16.60
2023-05-07T18:47:07.042Z,16.60
2023-05-07T18:49:37.653Z,16.60
2023-05-07T18:52:05.071Z,16.60
2023-05-07T18:54:32.246Z,16.50
2023-05-07T18:56:59.720Z,16.40
2023-05-07T18:59:26.878Z,16.40
2023-05-07T19:01:54.334Z,16.30
2023-05-07T19:04:21.774Z,16.30
2023-05-07T19:06:53.496Z,16.10
2023-05-07T19:09:21.002Z,16.00
2023-05-07T19:11:50.708Z,15.80
2023-05-07T19:14:17.846Z,15.70
2023-05-07T19:16:45.184Z,15.60
2023-05-07T19:19:12.810Z,15.50
2023-05-07T19:21:40.258Z,15.50
2023-05-07T19:24:08.339Z,15.30
2023-05-07T19:26:35.831Z,15.20
2023-05-07T19:29:16.429Z,15.10
2023-05-07T19:31:45.606Z,14.90
2023-05-07T19:34:17.762Z,14.70
2023-05-07T19:36:45.587Z,14.60
2023-05-07T19:39:12.927Z,14.50
2023-05-07T19:41:43.080Z,14.40
2023-05-07T19:44:10.349Z,14.20
2023-05-07T19:46:40.890Z,14.10
2023-05-07T19:49:10.089Z,14.00
2023-05-07T19:51:39.041Z,13.90
2023-05-07T19:54:06.740Z,13.80
2023-05-07T19:56:34.390Z,13.70
2023-05-07T19:59:01.756Z,13.60
2023-05-07T20:01:29.224Z,13.50
2023-05-07T20:03:57.090Z,13.50
2023-05-07T20:06:26.257Z,13.40
2023-05-07T20:08:53.458Z,13.30
2023-05-07T20:11:21.918Z,13.20
2023-05-07T20:13:49.388Z,13.10
2023-05-07T20:16:16.655Z,13.10
2023-05-07T20:18:44.219Z,13.00
2023-05-07T20:21:11.884Z,12.90
2023-05-07T20:23:39.044Z,12.80
2023-05-07T20:26:06.104Z,12.80
2023-05-07T20:28:33.490Z,12.70
2023-05-07T20:31:00.592Z,12.60
2023-05-07T20:33:27.762Z,12.60
2023-05-07T20:35:55.137Z,12.60
2023-05-07T20:38:22.378Z,12.50
2023-05-07T20:40:49.574Z,12.40
2023-05-07T20:43:16.701Z,12.40
2023-05-07T20:45:43.952Z,12.30
2023-05-07T20:48:11.181Z,12.30
2023-05-07T20:50:38.315Z,12.20
2023-05-07T20:53:05.508Z,12.10
2023-05-07T20:55:32.677Z,12.00
2023-05-07T20:57:59.784Z,12.00
2023-05-07T21:00:27.007Z,11.90
2023-05-07T21:02:54.126Z,11.90
2023-05-07T21:05:21.504Z,11.80
2023-05-07T21:07:48.649Z,11.80
2023-05-07T21:10:15.827Z,11.70
2023-05-07T21:12:42.988Z,11.70
2023-05-07T21:15:10.993Z,11.60
2023-05-07T21:17:38.159Z,11.60
2023-05-07T21:20:06.027Z,11.50
2023-05-07T21:22:33.356Z,11.40
2023-05-07T21:25:00.877Z,11.40
2023-05-07T21:27:29.747Z,11.40
2023-05-07T21:30:03.438Z,11.30
2023-05-07T21:32:31.251Z,11.20
2023-05-07T21:35:04.853Z,11.10
2023-05-07T21:37:32.029Z,11.00
2023-05-07T21:39:59.215Z,10.80
2023-05-07T21:42:27.353Z,10.80
2023-05-07T21:44:54.501Z,10.70
2023-05-07T21:47:21.677Z,10.70
2023-05-07T21:49:49.094Z,10.60
2023-05-07T21:52:17.523Z,10.50
2023-05-07T21:54:44.729Z,10.40
2023-05-07T21:57:11.841Z,10.40
2023-05-07T21:59:39.037Z,10.30
2023-05-07T22:02:07.076Z,10.20
2023-05-07T22:04:34.199Z,10.20
2023-05-07T22:07:01.322Z,10.10
2023-05-07T22:09:28.606Z,10.10
2023-05-07T22:11:56.093Z,10.00
2023-05-07T22:14:23.423Z,10.00
2023-05-07T22:16:50.601Z,9.80
2023-05-07T22:19:17.968Z,9.80
2023-05-07T22:21:45.142Z,9.70
2023-05-07T22:24:12.804Z,9.70
2023-05-07T22:26:40.045Z,9.70
2023-05-07T22:29:07.273Z,9.60
2023-05-07T22:31:34.558Z,9.50
2023-05-07T22:34:01.812Z,9.50
2023-05-07T22:36:28.965Z,9.40
2023-05-07T22:38:56.090Z,9.40
2023-05-07T22:41:24.158Z,9.30
2023-05-07T22:43:51.385Z,9.20
2023-05-07T22:46:18.603Z,9.20
2023-05-07T22:48:46.134Z,9.10
2023-05-07T22:51:16.006Z,9.10
2023-05-07T22:53:43.196Z,9.00
2023-05-07T22:56:10.534Z,9.00
2023-05-07T22:58:37.800Z,8.90
2023-05-07T23:01:11.806Z,8.80
2023-05-07T23:03:38.981Z,8.80
2023-05-07T23:06:06.428Z,8.80
2023-05-07T23:08:33.562Z,8.80
2023-05-07T23:11:01.054Z,8.70
2023-05-07T23:13:28.339Z,8.60
2023-05-07T23:15:55.706Z,8.50
2023-05-07T23:18:22.800Z,8.50
2023-05-07T23:20:49.918Z,8.50
2023-05-07T23:23:17.160Z,8.40
2023-05-07T23:25:44.336Z,8.40
2023-05-07T23:28:11.458Z,8.30
2023-05-07T23:30:40.758Z,8.30
2023-05-07T23:33:07.982Z,8.20
2023-05-07T23:35:35.147Z,8.20
2023-05-07T23:38:02.283Z,8.10
2023-05-07T23:40:29.359Z,8.10
2023-05-07T23:42:56.537Z,8.10
2023-05-07T23:45:23.710Z,8.10
2023-05-07T23:47:50.915Z,8.10
2023-05-07T23:50:18.161Z,8.10
2023-05-07T23:52:45.249Z,8.00
2023-05-07T23:55:12.389Z,8.00
2023-05-07T23:57:39.549Z,8.00
